createdAt,value
2023-01-13T00:00:23.521Z,24.50
2023-01-13T00:02:50.321Z,31.80
2023-01-13T00:05:17.014Z,29.30
2023-01-13T00:07:43.703Z,26.10
2023-01-13T00:10:11.924Z,28.70
2023-01-13T00:12:40.145Z,25.80
2023-01-13T00:15:07.609Z,26.10
2023-01-13T00:17:34.443Z,27.40
2023-01-13T00:20:01.509Z,35.00
2023-01-13T00:22:28.334Z,33.60
2023-01-13T00:24:54.949Z,32.70
2023-01-13T00:27:24.269Z,34.20
2023-01-13T00:29:51.118Z,29.60
2023-01-13T00:32:17.751Z,28.70
2023-01-13T00:34:44.390Z,30.10
2023-01-13T00:37:13.267Z,24.40
2023-01-13T00:39:40.117Z,28.30
2023-01-13T00:42:25.597Z,32.90
2023-01-13T00:44:52.648Z,39.20
2023-01-13T00:47:19.486Z,32.20
2023-01-13T00:49:46.174Z,40.00
2023-01-13T00:52:13.170Z,37.80
2023-01-13T00:54:40.226Z,31.00
2023-01-13T00:57:07.474Z,29.30
2023-01-13T00:59:34.108Z,33.50
2023-01-13T01:02:00.955Z,28.50
2023-01-13T01:04:27.797Z,28.10
2023-01-13T01:06:54.641Z,23.60
2023-01-13T01:09:21.496Z,22.40
2023-01-13T01:11:48.736Z,20.50
2023-01-13T01:14:15.576Z,22.70
2023-01-13T01:16:42.628Z,16.90
2023-01-13T01:19:10.500Z,21.40
2023-01-13T01:21:37.338Z,18.10
2023-01-13T01:24:04.405Z,23.70
2023-01-13T01:26:31.634Z,19.50
2023-01-13T01:28:59.090Z,19.70
2023-01-13T01:31:27.232Z,18.20
2023-01-13T01:33:54.945Z,22.10
2023-01-13T01:36:23.097Z,19.20
2023-01-13T01:38:50.573Z,21.10
2023-01-13T01:41:21.904Z,21.30
2023-01-13T01:44:08.215Z,26.00
2023-01-13T01:46:35.112Z,20.00
2023-01-13T01:49:04.751Z,19.00
2023-01-13T01:51:34.051Z,22.50
2023-01-13T01:54:02.532Z,27.00
2023-01-13T01:56:29.785Z,24.50
2023-01-13T01:58:56.630Z,21.10
2023-01-13T02:01:23.393Z,21.10
2023-01-13T02:03:54.508Z,25.30
2023-01-13T02:06:21.244Z,21.00
2023-01-13T02:08:48.088Z,26.20
2023-01-13T02:11:47.086Z,24.00
2023-01-13T02:14:14.543Z,23.80
2023-01-13T02:16:43.887Z,28.30
2023-01-13T02:19:26.001Z,31.20
2023-01-13T02:21:59.029Z,23.90
2023-01-13T02:25:01.103Z,32.10
2023-01-13T02:27:27.942Z,29.40
2023-01-13T02:30:32.672Z,33.10
2023-01-13T02:33:05.455Z,28.10
2023-01-13T02:35:38.441Z,18.10
2023-01-13T02:38:05.910Z,22.40
2023-01-13T02:40:51.183Z,20.80
2023-01-13T02:43:44.844Z,24.60
2023-01-13T02:46:20.748Z,28.70
2023-01-13T02:48:48.975Z,26.10
2023-01-13T02:51:18.070Z,27.50
2023-01-13T02:53:48.184Z,28.60
2023-01-13T02:56:16.500Z,21.90
2023-01-13T02:58:44.327Z,25.70
2023-01-13T03:01:11.100Z,17.60
2023-01-13T03:03:38.019Z,16.40
2023-01-13T03:06:16.739Z,21.90
2023-01-13T03:08:43.381Z,16.10
2023-01-13T03:11:11.865Z,20.40
2023-01-13T03:13:52.924Z,21.90
2023-01-13T03:16:19.528Z,25.30
2023-01-13T03:18:46.234Z,23.30
2023-01-13T03:21:20.940Z,22.00
2023-01-13T03:23:51.060Z,25.90
2023-01-13T03:26:23.625Z,18.80
2023-01-13T03:28:54.416Z,17.90
2023-01-13T03:31:24.721Z,21.60
2023-01-13T03:33:57.060Z,20.30
2023-01-13T03:36:26.482Z,16.50
2023-01-13T03:38:56.525Z,18.30
2023-01-13T03:41:26.605Z,17.60
2023-01-13T03:44:21.706Z,25.30
2023-01-13T03:46:53.878Z,23.10
2023-01-13T03:49:23.172Z,24.90
2023-01-13T03:51:53.866Z,24.70
2023-01-13T03:54:21.801Z,19.70
2023-01-13T03:56:51.702Z,25.20
2023-01-13T03:59:20.987Z,20.00
2023-01-13T04:02:11.339Z,19.00
2023-01-13T04:04:44.777Z,21.00
2023-01-13T04:07:14.895Z,19.20
2023-01-13T04:09:50.340Z,19.40
2023-01-13T04:12:48.723Z,18.80
2023-01-13T04:15:28.160Z,20.40
2023-01-13T04:18:01.467Z,20.70
2023-01-13T04:20:28.288Z,28.90
2023-01-13T04:22:54.925Z,21.00
2023-01-13T04:25:21.572Z,16.50
2023-01-13T04:27:48.413Z,20.80
2023-01-13T04:30:15.325Z,20.40
2023-01-13T04:32:42.104Z,21.80
2023-01-13T04:35:09.341Z,27.50
2023-01-13T04:37:36.184Z,26.30
2023-01-13T04:40:03.035Z,28.40
2023-01-13T04:42:29.877Z,26.10
2023-01-13T04:44:56.815Z,22.30
2023-01-13T04:47:23.465Z,19.00
2023-01-13T04:49:50.190Z,23.40
2023-01-13T04:52:16.819Z,25.60
2023-01-13T04:54:43.682Z,22.00
2023-01-13T04:57:10.527Z,23.90
2023-01-13T04:59:37.369Z,25.80
2023-01-13T05:02:03.990Z,32.20
2023-01-13T05:04:31.051Z,32.20
2023-01-13T05:06:58.827Z,27.50
2023-01-13T05:09:25.561Z,34.90
2023-01-13T05:12:10.733Z,35.90
2023-01-13T05:14:56.512Z,39.00
2023-01-13T05:17:24.275Z,22.90
2023-01-13T05:19:51.425Z,25.30
2023-01-13T05:22:36.908Z,20.00
2023-01-13T05:25:21.760Z,32.00
2023-01-13T05:27:53.413Z,22.90
2023-01-13T05:30:24.880Z,19.80
2023-01-13T05:32:51.706Z,16.50
2023-01-13T05:35:21.624Z,16.40
2023-01-13T05:37:48.471Z,20.30
2023-01-13T05:40:35.589Z,21.50
2023-01-13T05:43:22.416Z,23.20
2023-01-13T05:45:53.329Z,22.50
2023-01-13T05:48:22.126Z,20.30
2023-01-13T05:50:49.715Z,20.10
2023-01-13T05:53:17.647Z,14.30
2023-01-13T05:55:44.682Z,20.00
2023-01-13T05:58:12.407Z,16.90
2023-01-13T06:00:41.020Z,21.30
2023-01-13T06:03:08.913Z,15.80
2023-01-13T06:05:36.990Z,23.10
2023-01-13T06:08:04.645Z,16.70
2023-01-13T06:10:31.513Z,16.40
2023-01-13T06:12:58.325Z,15.80
2023-01-13T06:15:25.578Z,14.40
2023-01-13T06:17:52.838Z,15.60
2023-01-13T06:20:19.669Z,16.00
2023-01-13T06:22:49.181Z,14.90
2023-01-13T06:25:16.078Z,16.60
2023-01-13T06:27:43.073Z,14.60
2023-01-13T06:30:10.520Z,13.90
2023-01-13T06:32:39.822Z,18.60
2023-01-13T06:35:10.047Z,17.90
2023-01-13T06:37:37.397Z,16.80
2023-01-13T06:40:06.549Z,17.10
2023-01-13T06:42:53.831Z,23.70
2023-01-13T06:45:21.277Z,20.70
2023-01-13T06:47:48.120Z,18.40
2023-01-13T06:50:14.736Z,18.20
2023-01-13T06:52:41.395Z,18.70
2023-01-13T06:55:08.442Z,25.00
2023-01-13T06:57:35.123Z,21.20
2023-01-13T07:00:01.934Z,16.60
2023-01-13T07:02:29.022Z,19.50
2023-01-13T07:04:55.728Z,25.70
2023-01-13T07:07:22.317Z,18.30
2023-01-13T07:09:49.091Z,20.10
2023-01-13T07:12:15.929Z,17.40
2023-01-13T07:15:01.618Z,17.10
2023-01-13T07:17:28.254Z,20.80
2023-01-13T07:19:55.089Z,17.40
2023-01-13T07:22:21.939Z,17.10
2023-01-13T07:24:48.777Z,21.40
2023-01-13T07:27:15.340Z,18.30
2023-01-13T07:29:42.155Z,20.80
2023-01-13T07:32:08.890Z,19.00
2023-01-13T07:34:36.035Z,27.30
2023-01-13T07:37:02.664Z,23.90
2023-01-13T07:39:29.413Z,31.90
2023-01-13T07:42:15.111Z,23.40
2023-01-13T07:44:41.947Z,23.00
2023-01-13T07:47:11.243Z,20.30
2023-01-13T07:49:38.104Z,16.10
2023-01-13T07:52:05.335Z,18.50
2023-01-13T07:54:40.713Z,20.10
2023-01-13T07:57:08.428Z,20.40
2023-01-13T07:59:35.281Z,18.10
2023-01-13T08:02:02.431Z,19.50
2023-01-13T08:04:29.400Z,21.80
2023-01-13T08:06:56.223Z,17.50
2023-01-13T08:09:22.863Z,17.90
2023-01-13T08:12:09.568Z,18.50
2023-01-13T08:14:36.192Z,24.50
2023-01-13T08:17:02.846Z,16.90
2023-01-13T08:19:29.707Z,20.90
2023-01-13T08:21:57.136Z,18.20
2023-01-13T08:24:23.783Z,24.70
2023-01-13T08:26:50.418Z,19.70
2023-01-13T08:29:17.259Z,22.00
2023-01-13T08:31:44.319Z,27.10
2023-01-13T08:34:10.941Z,16.90
2023-01-13T08:36:37.533Z,19.80
2023-01-13T08:39:04.433Z,22.30
2023-01-13T08:41:49.706Z,28.60
2023-01-13T08:44:16.346Z,33.90
2023-01-13T08:46:42.966Z,30.60
2023-01-13T08:49:09.609Z,39.90
2023-01-13T08:51:36.655Z,31.70
2023-01-13T08:54:03.915Z,35.00
2023-01-13T08:56:32.181Z,38.50
2023-01-13T08:59:00.833Z,30.90
2023-01-13T09:01:27.862Z,35.40
2023-01-13T09:03:54.806Z,45.20
2023-01-13T09:06:21.611Z,54.50
2023-01-13T09:08:48.200Z,57.70
2023-01-13T09:11:38.090Z,48.70
2023-01-13T09:14:05.270Z,35.50
2023-01-13T09:16:31.920Z,39.30
2023-01-13T09:18:58.761Z,36.30
2023-01-13T09:21:26.422Z,49.80
2023-01-13T09:23:53.267Z,35.50
2023-01-13T09:26:21.545Z,36.60
2023-01-13T09:28:48.181Z,33.20
2023-01-13T09:31:15.080Z,29.80
2023-01-13T09:34:00.706Z,31.50
2023-01-13T09:36:27.281Z,33.40
2023-01-13T09:38:54.122Z,37.00
2023-01-13T09:41:43.763Z,32.80
2023-01-13T09:44:14.694Z,43.80
2023-01-13T09:46:47.885Z,31.60
2023-01-13T09:49:20.949Z,31.50
2023-01-13T09:52:07.922Z,30.50
2023-01-13T09:54:41.296Z,31.70
2023-01-13T09:57:12.534Z,39.20
2023-01-13T09:59:39.570Z,35.80
2023-01-13T10:02:12.092Z,38.80
2023-01-13T10:04:38.828Z,39.20
2023-01-13T10:07:08.706Z,39.10
2023-01-13T10:09:49.678Z,63.90
2023-01-13T10:12:41.096Z,35.80
2023-01-13T10:15:14.960Z,29.60
2023-01-13T10:17:52.598Z,37.40
2023-01-13T10:20:31.519Z,35.30
2023-01-13T10:22:58.171Z,39.10
2023-01-13T10:25:28.271Z,41.40
2023-01-13T10:27:56.171Z,46.90
2023-01-13T10:30:34.474Z,53.70
2023-01-13T10:33:02.523Z,55.60
2023-01-13T10:35:47.388Z,47.40
2023-01-13T10:38:20.176Z,43.30
2023-01-13T10:40:51.315Z,44.50
2023-01-13T10:43:18.155Z,44.80
2023-01-13T10:46:11.607Z,49.00
2023-01-13T10:48:52.211Z,36.40
2023-01-13T10:51:24.084Z,35.40
2023-01-13T10:54:01.898Z,29.50
2023-01-13T10:56:32.834Z,28.80
2023-01-13T10:59:28.925Z,30.60
2023-01-13T11:01:58.431Z,23.60
2023-01-13T11:04:38.660Z,27.30
2023-01-13T11:07:06.651Z,26.20
2023-01-13T11:09:34.353Z,25.60
2023-01-13T11:12:03.197Z,24.30
2023-01-13T11:14:42.131Z,27.00
2023-01-13T11:17:21.055Z,21.20
2023-01-13T11:19:51.188Z,17.70
2023-01-13T11:22:21.917Z,19.20
2023-01-13T11:24:51.612Z,21.90
2023-01-13T11:27:18.465Z,19.10
2023-01-13T11:29:51.449Z,17.90
2023-01-13T11:32:20.105Z,21.10
2023-01-13T11:34:52.906Z,18.10
2023-01-13T11:37:27.838Z,20.00
2023-01-13T11:40:12.200Z,19.10
2023-01-13T11:43:01.982Z,19.90
2023-01-13T11:45:37.879Z,18.10
2023-01-13T11:48:05.692Z,22.40
2023-01-13T11:50:34.607Z,19.80
2023-01-13T11:53:10.849Z,20.10
2023-01-13T11:55:46.912Z,23.20
2023-01-13T11:58:49.653Z,27.40
2023-01-13T12:01:23.062Z,41.00
2023-01-13T12:04:08.343Z,53.60
2023-01-13T12:06:36.305Z,35.30
2023-01-13T12:09:21.384Z,30.60
2023-01-13T12:12:06.554Z,24.00
2023-01-13T12:14:33.247Z,27.50
2023-01-13T12:17:01.559Z,32.70
2023-01-13T12:19:32.404Z,23.00
2023-01-13T12:22:12.377Z,23.30
2023-01-13T12:24:48.329Z,21.60
2023-01-13T12:27:35.859Z,18.50
2023-01-13T12:30:03.947Z,19.80
2023-01-13T12:32:34.875Z,22.50
2023-01-13T12:35:06.425Z,36.00
2023-01-13T12:37:40.236Z,21.30
2023-01-13T12:40:22.090Z,21.70
2023-01-13T12:43:30.240Z,20.80
2023-01-13T12:46:16.791Z,38.70
2023-01-13T12:49:05.094Z,24.10
2023-01-13T12:51:33.537Z,18.40
2023-01-13T12:54:01.221Z,19.60
2023-01-13T12:56:44.902Z,18.30
2023-01-13T12:59:19.076Z,15.40
2023-01-13T13:01:47.186Z,16.90
2023-01-13T13:04:17.262Z,17.20
2023-01-13T13:06:47.268Z,19.00
2023-01-13T13:09:20.172Z,33.30
2023-01-13T13:12:04.010Z,27.50
2023-01-13T13:14:36.876Z,20.40
2023-01-13T13:17:22.675Z,25.40
2023-01-13T13:19:49.474Z,23.00
2023-01-13T13:22:19.436Z,32.10
2023-01-13T13:24:49.368Z,30.20
2023-01-13T13:27:20.088Z,20.20
2023-01-13T13:30:07.203Z,24.20
2023-01-13T13:33:00.471Z,23.40
2023-01-13T13:35:36.523Z,23.00
2023-01-13T13:38:31.426Z,17.50
2023-01-13T13:41:17.108Z,12.20
2023-01-13T13:44:03.276Z,12.60
2023-01-13T13:46:47.235Z,16.80
2023-01-13T13:49:22.078Z,12.60
2023-01-13T13:51:52.037Z,11.00
2023-01-13T13:54:21.130Z,14.20
2023-01-13T13:56:49.158Z,14.70
2023-01-13T13:59:35.043Z,14.00
2023-01-13T14:02:03.777Z,12.00
2023-01-13T14:04:32.599Z,11.90
2023-01-13T14:07:00.703Z,14.80
2023-01-13T14:09:38.961Z,15.70
2023-01-13T14:12:09.495Z,16.60
2023-01-13T14:14:36.131Z,13.00
2023-01-13T14:17:04.402Z,13.20
2023-01-13T14:19:35.362Z,13.60
2023-01-13T14:22:03.827Z,20.90
2023-01-13T14:24:31.477Z,41.70
2023-01-13T14:27:10.935Z,60.90
2023-01-13T14:29:38.051Z,25.40
2023-01-13T14:32:05.923Z,16.80
2023-01-13T14:34:33.419Z,15.20
2023-01-13T14:37:01.039Z,50.20
2023-01-13T14:39:35.248Z,24.50
2023-01-13T14:42:02.299Z,16.10
2023-01-13T14:44:31.190Z,17.50
2023-01-13T14:46:59.596Z,19.40
2023-01-13T14:49:32.642Z,34.40
2023-01-13T14:52:11.683Z,42.20
2023-01-13T14:54:41.296Z,17.90
2023-01-13T14:57:11.865Z,18.30
2023-01-13T14:59:48.395Z,15.60
2023-01-13T15:02:30.168Z,17.00
2023-01-13T15:04:59.373Z,17.70
2023-01-13T15:07:27.214Z,18.40
2023-01-13T15:09:55.371Z,18.30
2023-01-13T15:12:23.849Z,20.30
2023-01-13T15:14:52.824Z,19.00
2023-01-13T15:17:19.502Z,21.80
2023-01-13T15:19:46.197Z,17.70
2023-01-13T15:22:12.879Z,18.60
2023-01-13T15:24:39.523Z,17.70
2023-01-13T15:27:14.092Z,25.40
2023-01-13T15:29:40.769Z,25.00
2023-01-13T15:32:11.428Z,26.60
2023-01-13T15:34:38.195Z,25.20
2023-01-13T15:37:04.912Z,20.50
2023-01-13T15:39:31.877Z,19.70
2023-01-13T15:42:17.468Z,20.40
2023-01-13T15:45:02.806Z,25.10
2023-01-13T15:47:29.667Z,29.70
2023-01-13T15:49:56.239Z,23.80
2023-01-13T15:52:24.058Z,39.80
2023-01-13T15:54:51.442Z,42.70
2023-01-13T15:57:21.367Z,48.50
2023-01-13T15:59:48.116Z,50.90
2023-01-13T16:02:18.576Z,67.00
2023-01-13T16:04:45.772Z,93.20
2023-01-13T16:07:17.308Z,83.00
2023-01-13T16:09:45.188Z,65.40
2023-01-13T16:12:12.509Z,52.50
2023-01-13T16:14:39.233Z,44.60
2023-01-13T16:17:18.924Z,40.60
2023-01-13T16:19:46.001Z,42.50
2023-01-13T16:22:14.295Z,46.50
2023-01-13T16:24:41.514Z,37.00
2023-01-13T16:27:26.302Z,35.50
2023-01-13T16:29:53.297Z,38.60
2023-01-13T16:32:21.172Z,38.10
2023-01-13T16:34:48.294Z,30.20
2023-01-13T16:37:25.840Z,30.30
2023-01-13T16:39:53.700Z,40.50
2023-01-13T16:42:20.979Z,72.60
2023-01-13T16:44:48.779Z,59.50
2023-01-13T16:47:16.643Z,33.90
2023-01-13T16:49:43.592Z,25.50
2023-01-13T16:52:10.619Z,21.50
2023-01-13T16:54:37.263Z,31.70
2023-01-13T16:57:04.376Z,29.40
2023-01-13T16:59:31.050Z,34.30
2023-01-13T17:01:58.205Z,57.80
2023-01-13T17:04:25.277Z,43.90
2023-01-13T17:07:00.676Z,31.40
2023-01-13T17:09:28.344Z,39.70
2023-01-13T17:11:55.794Z,41.50
2023-01-13T17:14:23.837Z,37.40
2023-01-13T17:16:51.716Z,37.10
2023-01-13T17:19:19.368Z,40.30
2023-01-13T17:21:47.193Z,38.90
2023-01-13T17:24:14.437Z,40.10
2023-01-13T17:26:44.189Z,33.50
2023-01-13T17:29:16.013Z,40.40
2023-01-13T17:31:43.119Z,36.60
2023-01-13T17:34:10.481Z,39.10
2023-01-13T17:36:37.326Z,45.40
2023-01-13T17:39:04.473Z,47.80
2023-01-13T17:41:31.256Z,41.70
2023-01-13T17:43:58.064Z,45.30
2023-01-13T17:46:24.844Z,34.70
2023-01-13T17:48:53.028Z,34.20
2023-01-13T17:51:22.914Z,40.70
2023-01-13T17:53:49.603Z,45.80
2023-01-13T17:56:17.307Z,42.10
2023-01-13T17:58:45.933Z,44.20
2023-01-13T18:01:14.504Z,42.90
2023-01-13T18:03:41.560Z,45.20
2023-01-13T18:06:12.611Z,46.30
2023-01-13T18:08:39.472Z,44.40
2023-01-13T18:11:06.267Z,50.30
2023-01-13T18:13:34.139Z,50.00
2023-01-13T18:16:11.418Z,50.50
2023-01-13T18:18:39.581Z,44.00
2023-01-13T18:21:26.115Z,48.00
2023-01-13T18:24:12.530Z,44.30
2023-01-13T18:26:58.212Z,40.80
2023-01-13T18:29:25.417Z,42.80
2023-01-13T18:31:53.197Z,38.30
2023-01-13T18:34:21.531Z,37.90
2023-01-13T18:36:55.454Z,39.80
2023-01-13T18:39:23.204Z,36.10
2023-01-13T18:42:09.506Z,37.30
2023-01-13T18:44:36.369Z,42.40
2023-01-13T18:47:04.007Z,51.40
2023-01-13T18:49:30.844Z,48.80
2023-01-13T18:51:57.932Z,49.00
2023-01-13T18:54:25.159Z,71.50
2023-01-13T18:56:52.123Z,66.50
2023-01-13T18:59:19.588Z,55.60
2023-01-13T19:01:46.973Z,41.90
2023-01-13T19:04:16.348Z,40.10
2023-01-13T19:06:53.080Z,34.60
2023-01-13T19:09:23.655Z,41.10
2023-01-13T19:11:53.498Z,43.90
2023-01-13T19:14:37.829Z,47.50
2023-01-13T19:17:08.092Z,56.40
2023-01-13T19:19:38.034Z,56.10
2023-01-13T19:22:04.666Z,58.00
2023-01-13T19:24:32.939Z,49.00
2023-01-13T19:26:59.816Z,46.50
2023-01-13T19:29:26.613Z,50.60
2023-01-13T19:31:53.332Z,55.20
2023-01-13T19:34:20.139Z,49.80
2023-01-13T19:36:47.972Z,45.00
2023-01-13T19:39:15.008Z,39.60
2023-01-13T19:42:01.164Z,37.10
2023-01-13T19:44:46.962Z,36.70
2023-01-13T19:47:15.687Z,31.40
2023-01-13T19:49:43.132Z,36.80
2023-01-13T19:52:10.658Z,31.00
2023-01-13T19:54:38.009Z,29.50
2023-01-13T19:57:05.927Z,28.80
2023-01-13T19:59:34.109Z,32.20
2023-01-13T20:02:01.882Z,39.80
2023-01-13T20:04:34.607Z,40.50
2023-01-13T20:07:03.198Z,25.50
2023-01-13T20:09:32.055Z,21.10
2023-01-13T20:12:03.379Z,22.10
2023-01-13T20:14:31.425Z,30.50
2023-01-13T20:16:58.932Z,26.40
2023-01-13T20:19:25.734Z,26.20
2023-01-13T20:21:54.619Z,35.60
2023-01-13T20:24:21.939Z,31.00
2023-01-13T20:26:48.638Z,35.30
2023-01-13T20:29:15.544Z,34.20
2023-01-13T20:31:42.546Z,35.20
2023-01-13T20:34:09.433Z,31.60
2023-01-13T20:36:43.861Z,52.70
2023-01-13T20:39:13.601Z,40.50
2023-01-13T20:41:59.249Z,38.20
2023-01-13T20:44:27.523Z,50.30
2023-01-13T20:46:55.828Z,45.00
2023-01-13T20:49:23.499Z,49.50
2023-01-13T20:51:51.739Z,41.10
2023-01-13T20:54:19.406Z,49.40
2023-01-13T20:56:46.464Z,51.50
2023-01-13T20:59:13.514Z,51.40
2023-01-13T21:01:40.479Z,39.00
2023-01-13T21:04:08.310Z,47.80
2023-01-13T21:06:35.853Z,58.50
2023-01-13T21:09:02.911Z,77.40
2023-01-13T21:11:48.597Z,69.60
2023-01-13T21:14:59.065Z,45.90
2023-01-13T21:17:44.506Z,38.20
2023-01-13T21:20:12.154Z,46.90
2023-01-13T21:22:39.269Z,55.30
2023-01-13T21:25:07.940Z,56.50
2023-01-13T21:27:34.816Z,56.60
2023-01-13T21:30:02.092Z,55.00
2023-01-13T21:32:28.850Z,35.00
2023-01-13T21:34:56.110Z,31.30
2023-01-13T21:37:22.699Z,30.20
2023-01-13T21:39:49.406Z,27.10
2023-01-13T21:42:35.708Z,29.00
2023-01-13T21:45:21.592Z,28.30
2023-01-13T21:47:48.421Z,31.70
2023-01-13T21:50:25.186Z,32.20
2023-01-13T21:52:52.996Z,29.60
2023-01-13T21:55:20.575Z,28.40
2023-01-13T21:57:48.913Z,27.80
2023-01-13T22:00:17.091Z,27.70
2023-01-13T22:02:46.483Z,23.90
2023-01-13T22:05:14.573Z,26.90
2023-01-13T22:07:41.629Z,26.20
2023-01-13T22:10:10.484Z,26.30
2023-01-13T22:12:37.437Z,21.20
2023-01-13T22:15:04.453Z,22.70
2023-01-13T22:17:32.051Z,21.10
2023-01-13T22:20:00.115Z,21.90
2023-01-13T22:22:28.745Z,22.50
2023-01-13T22:24:55.539Z,23.80
2023-01-13T22:27:23.934Z,25.10
2023-01-13T22:29:52.369Z,25.90
2023-01-13T22:32:20.061Z,22.30
2023-01-13T22:34:48.054Z,21.50
2023-01-13T22:37:14.981Z,27.80
2023-01-13T22:39:41.832Z,25.90
2023-01-13T22:42:10.299Z,34.80
2023-01-13T22:44:36.943Z,23.30
2023-01-13T22:47:03.991Z,22.60
2023-01-13T22:49:30.837Z,21.80
2023-01-13T22:51:57.906Z,21.80
2023-01-13T22:54:24.482Z,23.10
2023-01-13T22:56:51.171Z,25.10
2023-01-13T22:59:17.990Z,23.10
2023-01-13T23:01:44.839Z,21.10
2023-01-13T23:04:13.215Z,26.50
2023-01-13T23:06:40.778Z,26.00
2023-01-13T23:09:07.848Z,25.30
2023-01-13T23:11:35.486Z,25.30
2023-01-13T23:14:03.555Z,22.70
2023-01-13T23:16:30.844Z,22.80
2023-01-13T23:18:58.175Z,26.60
2023-01-13T23:21:35.581Z,26.40
2023-01-13T23:24:06.520Z,21.20
2023-01-13T23:26:33.446Z,22.80
2023-01-13T23:29:04.940Z,27.60
2023-01-13T23:31:31.789Z,30.20
2023-01-13T23:33:58.657Z,30.90
2023-01-13T23:36:26.439Z,28.90
2023-01-13T23:38:53.765Z,35.10
2023-01-13T23:41:24.460Z,35.30
2023-01-13T23:43:56.452Z,37.60
2023-01-13T23:46:23.738Z,31.10
2023-01-13T23:48:51.100Z,33.50
2023-01-13T23:51:18.353Z,30.50
2023-01-13T23:53:46.130Z,25.30
2023-01-13T23:56:14.634Z,28.30
2023-01-13T23:58:42.046Z,27.70
